This is the latest recevied weather packets stored in our database for station/object M0VEM-7. If no packets are shown the sender has not sent any weather packets the latest 10 day(s).
| Time | Temp. | Humidity | Pressure | Rain* | Wind** | Luminosity | Snow |
|---|---|---|---|---|---|---|---|
| 1777714191 | 27.78° C | 43% | 1017.9 hPa | - | - | - | - |
| 1777632275 | 31.11° C | 34% | 1019.2 hPa | - | - | - | - |
| 1777631675 | 28.89° C | 35% | 1019.3 hPa | - | - | - | - |
| 1777580709 | 20.56° C | 38% | 1021.7 hPa | - | - | - | - |
| 1777408242 | 15.56° C | 47% | 1027.1 hPa | - | - | - | - |
| 1777407642 | 16.11° C | 46% | 1026.8 hPa | - | - | - | - |
| 1777407041 | 16.11° C | 45% | 1026.6 hPa | - | - | - | - |
| 1777404772 | 17.22° C | 40% | 1026.9 hPa | - | - | - | - |
| 1777399969 | 21.11° C | 41% | 1026.8 hPa | - | - | - | - |
| 1777397568 | 22.78° C | 43% | 1026.2 hPa | - | - | - | - |
| 1777396968 | 23.33° C | 44% | 1025.8 hPa | - | - | - | - |
| 1777395167 | 24.44° C | 45% | 1025.2 hPa | - | - | - | - |
| 1777393966 | 24.44° C | 46% | 1025.8 hPa | - | - | - | - |
| 1777392165 | 23.89° C | 45% | 1024.8 hPa | - | - | - | - |
| 1777390964 | 23.33° C | 44% | 1025.8 hPa | - | - | - | - |
| 1777387753 | 26.67° C | 40% | 1024.8 hPa | - | - | - | - |
| 1777385548 | 25.56° C | 43% | 1024.8 hPa | - | - | - | - |
| 1777303527 | 30° C | 37% | 1022.8 hPa | - | - | - | - |
| 1777302328 | 30.56° C | 37% | 1022.9 hPa | - | - | - | - |
| 1777301727 | 30.56° C | 36% | 1022.4 hPa | - | - | - | - |
| 1777104176 | 15° C | 44% | 1022.6 hPa | - | - | - | - |
| 1777103576 | 14.44° C | 43% | 1022.4 hPa | - | - | - | - |
| 1777040279 | 36.67° C | 32% | 1024.5 hPa | - | - | - | - |
| 1777039678 | 35.56° C | 32% | 1024.7 hPa | - | - | - | - |
| 1777038528 | 39.44° C | 31% | 1024.9 hPa | - | - | - | - |
* Rain since midnight (hover to see other rain measurements)
** Current wind speed in m/s (hover to see current wind gust speed)